sensor_id;sensor_type;location;lat;lon;timestamp;pressure;altitude;pressure_sealevel;temperature
69545;BMP180;56766;52.260;20.746;2022-12-31T00:00:14;100355.40;;;2.14
69545;BMP180;56766;52.260;20.746;2022-12-31T00:03:01;100348.00;;;2.12
69545;BMP180;56766;52.260;20.746;2022-12-31T00:05:34;100346.80;;;2.10
69545;BMP180;56766;52.260;20.746;2022-12-31T00:08:02;100348.80;;;2.10
69545;BMP180;56766;52.260;20.746;2022-12-31T00:10:29;100345.00;;;2.10
69545;BMP180;56766;52.260;20.746;2022-12-31T00:12:56;100335.00;;;2.10
69545;BMP180;56766;52.260;20.746;2022-12-31T00:15:22;100339.60;;;2.10
69545;BMP180;56766;52.260;20.746;2022-12-31T00:17:49;100331.40;;;2.02
69545;BMP180;56766;52.260;20.746;2022-12-31T00:20:16;100324.20;;;2.02
69545;BMP180;56766;52.260;20.746;2022-12-31T00:22:43;100314.40;;;2.06
69545;BMP180;56766;52.260;20.746;2022-12-31T00:25:09;100320.60;;;2.08
69545;BMP180;56766;52.260;20.746;2022-12-31T00:27:36;100316.40;;;2.02
69545;BMP180;56766;52.260;20.746;2022-12-31T00:30:03;100311.80;;;2.00
69545;BMP180;56766;52.260;20.746;2022-12-31T00:32:30;100316.40;;;2.00
69545;BMP180;56766;52.260;20.746;2022-12-31T00:34:56;100307.80;;;2.00
69545;BMP180;56766;52.260;20.746;2022-12-31T00:37:23;100311.20;;;2.00
69545;BMP180;56766;52.260;20.746;2022-12-31T00:39:50;100307.40;;;2.00
69545;BMP180;56766;52.260;20.746;2022-12-31T00:42:17;100303.00;;;2.00
69545;BMP180;56766;52.260;20.746;2022-12-31T00:44:44;100306.00;;;2.00
69545;BMP180;56766;52.260;20.746;2022-12-31T00:47:10;100298.40;;;2.06
69545;BMP180;56766;52.260;20.746;2022-12-31T00:49:37;100295.40;;;2.10
69545;BMP180;56766;52.260;20.746;2022-12-31T00:52:04;100290.60;;;2.10
69545;BMP180;56766;52.260;20.746;2022-12-31T00:54:31;100287.40;;;2.10
69545;BMP180;56766;52.260;20.746;2022-12-31T00:56:58;100277.40;;;2.10
69545;BMP180;56766;52.260;20.746;2022-12-31T00:59:24;100278.20;;;2.10
69545;BMP180;56766;52.260;20.746;2022-12-31T01:01:51;100277.60;;;2.10
69545;BMP180;56766;52.260;20.746;2022-12-31T01:04:20;100268.80;;;2.10
69545;BMP180;56766;52.260;20.746;2022-12-31T01:06:47;100264.20;;;2.10
69545;BMP180;56766;52.260;20.746;2022-12-31T01:09:15;100264.60;;;2.10
69545;BMP180;56766;52.260;20.746;2022-12-31T01:11:43;100260.60;;;2.10
69545;BMP180;56766;52.260;20.746;2022-12-31T01:14:17;100267.80;;;2.14
69545;BMP180;56766;52.260;20.746;2022-12-31T01:16:51;100263.60;;;2.20
69545;BMP180;56766;52.260;20.746;2022-12-31T01:19:25;100265.20;;;2.20
69545;BMP180;56766;52.260;20.746;2022-12-31T01:21:54;100260.20;;;2.20
69545;BMP180;56766;52.260;20.746;2022-12-31T01:24:22;100258.20;;;2.20
69545;BMP180;56766;52.260;20.746;2022-12-31T01:26:48;100258.00;;;2.30
69545;BMP180;56766;52.260;20.746;2022-12-31T01:29:17;100257.40;;;2.30
69545;BMP180;56766;52.260;20.746;2022-12-31T01:31:44;100254.80;;;2.30
69545;BMP180;56766;52.260;20.746;2022-12-31T01:34:11;100249.60;;;2.30
69545;BMP180;56766;52.260;20.746;2022-12-31T01:36:38;100237.00;;;2.30
69545;BMP180;56766;52.260;20.746;2022-12-31T01:39:07;100242.80;;;2.40
69545;BMP180;56766;52.260;20.746;2022-12-31T01:41:43;100236.40;;;2.40
69545;BMP180;56766;52.260;20.746;2022-12-31T01:46:50;100226.80;;;2.50
69545;BMP180;56766;52.260;20.746;2022-12-31T01:49:46;100227.40;;;2.50
69545;BMP180;56766;52.260;20.746;2022-12-31T01:52:33;100222.60;;;2.60
69545;BMP180;56766;52.260;20.746;2022-12-31T01:55:15;100221.20;;;2.60
69545;BMP180;56766;52.260;20.746;2022-12-31T01:57:49;100209.60;;;2.66
69545;BMP180;56766;52.260;20.746;2022-12-31T02:00:17;100197.00;;;2.70
69545;BMP180;56766;52.260;20.746;2022-12-31T02:02:45;100193.80;;;2.70
69545;BMP180;56766;52.260;20.746;2022-12-31T02:07:48;100190.80;;;2.70
69545;BMP180;56766;52.260;20.746;2022-12-31T02:10:16;100189.00;;;2.70
69545;BMP180;56766;52.260;20.746;2022-12-31T02:12:45;100196.80;;;2.70
69545;BMP180;56766;52.260;20.746;2022-12-31T02:15:11;100194.20;;;2.80
69545;BMP180;56766;52.260;20.746;2022-12-31T02:18:09;100187.80;;;2.80
69545;BMP180;56766;52.260;20.746;2022-12-31T02:38:27;100154.80;;;3.00
69545;BMP180;56766;52.260;20.746;2022-12-31T02:40:57;100157.00;;;3.00
69545;BMP180;56766;52.260;20.746;2022-12-31T02:43:25;100159.60;;;3.06
69545;BMP180;56766;52.260;20.746;2022-12-31T02:46:22;100158.80;;;3.10
69545;BMP180;56766;52.260;20.746;2022-12-31T02:49:12;100166.00;;;3.10
69545;BMP180;56766;52.260;20.746;2022-12-31T02:51:50;100167.00;;;3.20
69545;BMP180;56766;52.260;20.746;2022-12-31T02:54:30;100157.40;;;3.20
69545;BMP180;56766;52.260;20.746;2022-12-31T02:57:19;100151.20;;;3.28
69545;BMP180;56766;52.260;20.746;2022-12-31T03:00:01;100141.80;;;3.34
69545;BMP180;56766;52.260;20.746;2022-12-31T03:02:51;100152.20;;;3.40
69545;BMP180;56766;52.260;20.746;2022-12-31T03:05:30;100164.40;;;3.50
69545;BMP180;56766;52.260;20.746;2022-12-31T03:07:58;100169.80;;;3.60
69545;BMP180;56766;52.260;20.746;2022-12-31T03:10:25;100163.60;;;3.70
69545;BMP180;56766;52.260;20.746;2022-12-31T03:12:52;100168.00;;;3.90
69545;BMP180;56766;52.260;20.746;2022-12-31T03:15:24;100165.20;;;4.00
69545;BMP180;56766;52.260;20.746;2022-12-31T03:20:39;100160.00;;;4.24
69545;BMP180;56766;52.260;20.746;2022-12-31T03:25:57;100165.60;;;4.50
69545;BMP180;56766;52.260;20.746;2022-12-31T03:28:28;100169.00;;;4.60
69545;BMP180;56766;52.260;20.746;2022-12-31T03:31:00;100170.60;;;4.70
69545;BMP180;56766;52.260;20.746;2022-12-31T03:33:37;100167.60;;;4.80
69545;BMP180;56766;52.260;20.746;2022-12-31T03:36:12;100173.00;;;4.92
69545;BMP180;56766;52.260;20.746;2022-12-31T03:38:40;100180.00;;;5.00
69545;BMP180;56766;52.260;20.746;2022-12-31T03:41:09;100180.40;;;5.10
69545;BMP180;56766;52.260;20.746;2022-12-31T03:43:37;100179.20;;;5.10
69545;BMP180;56766;52.260;20.746;2022-12-31T03:46:04;100172.00;;;5.12
69545;BMP180;56766;52.260;20.746;2022-12-31T03:48:31;100168.60;;;5.20
69545;BMP180;56766;52.260;20.746;2022-12-31T03:50:57;100165.80;;;5.30
69545;BMP180;56766;52.260;20.746;2022-12-31T03:53:24;100168.60;;;5.30
69545;BMP180;56766;52.260;20.746;2022-12-31T03:55:52;100172.40;;;5.30
69545;BMP180;56766;52.260;20.746;2022-12-31T03:58:20;100175.40;;;5.40
69545;BMP180;56766;52.260;20.746;2022-12-31T04:00:47;100178.80;;;5.40
69545;BMP180;56766;52.260;20.746;2022-12-31T04:03:13;100189.60;;;5.40
69545;BMP180;56766;52.260;20.746;2022-12-31T04:05:40;100184.80;;;5.50
69545;BMP180;56766;52.260;20.746;2022-12-31T04:08:07;100178.00;;;5.50
69545;BMP180;56766;52.260;20.746;2022-12-31T04:10:34;100182.80;;;5.50
69545;BMP180;56766;52.260;20.746;2022-12-31T04:13:00;100188.60;;;5.50
69545;BMP180;56766;52.260;20.746;2022-12-31T04:15:30;100184.20;;;5.54
69545;BMP180;56766;52.260;20.746;2022-12-31T04:17:56;100174.40;;;5.60
69545;BMP180;56766;52.260;20.746;2022-12-31T04:20:23;100175.20;;;5.60
69545;BMP180;56766;52.260;20.746;2022-12-31T04:22:50;100177.40;;;5.60
69545;BMP180;56766;52.260;20.746;2022-12-31T04:25:16;100165.40;;;5.64
69545;BMP180;56766;52.260;20.746;2022-12-31T04:27:43;100157.40;;;5.68
69545;BMP180;56766;52.260;20.746;2022-12-31T04:30:12;100154.20;;;5.70
69545;BMP180;56766;52.260;20.746;2022-12-31T04:32:40;100166.40;;;5.70
69545;BMP180;56766;52.260;20.746;2022-12-31T04:35:08;100169.00;;;5.70
69545;BMP180;56766;52.260;20.746;2022-12-31T04:37:36;100156.60;;;5.70
69545;BMP180;56766;52.260;20.746;2022-12-31T04:40:03;100161.40;;;5.70
69545;BMP180;56766;52.260;20.746;2022-12-31T04:42:29;100165.80;;;5.70
69545;BMP180;56766;52.260;20.746;2022-12-31T04:44:56;100161.60;;;5.70
69545;BMP180;56766;52.260;20.746;2022-12-31T04:47:23;100158.80;;;5.70
69545;BMP180;56766;52.260;20.746;2022-12-31T04:49:49;100158.20;;;5.70
69545;BMP180;56766;52.260;20.746;2022-12-31T04:52:16;100159.80;;;5.70
69545;BMP180;56766;52.260;20.746;2022-12-31T04:54:43;100165.40;;;5.70
69545;BMP180;56766;52.260;20.746;2022-12-31T04:57:10;100171.40;;;5.70
69545;BMP180;56766;52.260;20.746;2022-12-31T04:59:36;100176.20;;;5.70
69545;BMP180;56766;52.260;20.746;2022-12-31T05:02:03;100175.20;;;5.78
69545;BMP180;56766;52.260;20.746;2022-12-31T05:04:30;100175.00;;;5.80
69545;BMP180;56766;52.260;20.746;2022-12-31T05:06:57;100171.60;;;5.80
69545;BMP180;56766;52.260;20.746;2022-12-31T05:09:23;100174.00;;;5.90
69545;BMP180;56766;52.260;20.746;2022-12-31T05:11:53;100167.20;;;5.90
69545;BMP180;56766;52.260;20.746;2022-12-31T05:14:19;100162.60;;;5.90
69545;BMP180;56766;52.260;20.746;2022-12-31T05:16:46;100166.20;;;6.00
69545;BMP180;56766;52.260;20.746;2022-12-31T05:19:13;100172.00;;;6.00
69545;BMP180;56766;52.260;20.746;2022-12-31T05:21:39;100176.80;;;6.00
69545;BMP180;56766;52.260;20.746;2022-12-31T05:24:07;100175.60;;;6.00
69545;BMP180;56766;52.260;20.746;2022-12-31T05:26:34;100175.00;;;6.00
69545;BMP180;56766;52.260;20.746;2022-12-31T05:29:01;100182.80;;;6.10
69545;BMP180;56766;52.260;20.746;2022-12-31T05:31:28;100185.60;;;6.10
69545;BMP180;56766;52.260;20.746;2022-12-31T05:33:55;100186.60;;;6.10
69545;BMP180;56766;52.260;20.746;2022-12-31T05:36:21;100183.80;;;6.20
69545;BMP180;56766;52.260;20.746;2022-12-31T05:38:48;100178.40;;;6.20
69545;BMP180;56766;52.260;20.746;2022-12-31T05:41:15;100180.20;;;6.20
69545;BMP180;56766;52.260;20.746;2022-12-31T05:43:41;100174.80;;;6.28
69545;BMP180;56766;52.260;20.746;2022-12-31T05:46:08;100172.20;;;6.30
69545;BMP180;56766;52.260;20.746;2022-12-31T05:48:35;100161.80;;;6.40
69545;BMP180;56766;52.260;20.746;2022-12-31T05:51:01;100163.80;;;6.40
69545;BMP180;56766;52.260;20.746;2022-12-31T05:53:28;100160.00;;;6.50
69545;BMP180;56766;52.260;20.746;2022-12-31T05:55:55;100160.60;;;6.50
69545;BMP180;56766;52.260;20.746;2022-12-31T05:58:22;100166.20;;;6.50
69545;BMP180;56766;52.260;20.746;2022-12-31T06:00:51;100165.60;;;6.50
69545;BMP180;56766;52.260;20.746;2022-12-31T06:03:17;100172.60;;;6.58
69545;BMP180;56766;52.260;20.746;2022-12-31T06:05:44;100172.00;;;6.60
69545;BMP180;56766;52.260;20.746;2022-12-31T06:08:11;100168.00;;;6.60
69545;BMP180;56766;52.260;20.746;2022-12-31T06:10:39;100162.60;;;6.60
69545;BMP180;56766;52.260;20.746;2022-12-31T06:13:07;100162.60;;;6.52
69545;BMP180;56766;52.260;20.746;2022-12-31T06:15:38;100161.80;;;6.50
69545;BMP180;56766;52.260;20.746;2022-12-31T06:18:05;100163.60;;;6.50
69545;BMP180;56766;52.260;20.746;2022-12-31T06:20:35;100160.20;;;6.50
69545;BMP180;56766;52.260;20.746;2022-12-31T06:23:03;100163.40;;;6.50
69545;BMP180;56766;52.260;20.746;2022-12-31T06:25:30;100161.80;;;6.50
69545;BMP180;56766;52.260;20.746;2022-12-31T06:27:56;100164.60;;;6.50
69545;BMP180;56766;52.260;20.746;2022-12-31T06:30:23;100171.40;;;6.52
69545;BMP180;56766;52.260;20.746;2022-12-31T06:32:49;100173.80;;;6.56
69545;BMP180;56766;52.260;20.746;2022-12-31T06:35:16;100181.40;;;6.60
69545;BMP180;56766;52.260;20.746;2022-12-31T06:37:43;100178.60;;;6.60
69545;BMP180;56766;52.260;20.746;2022-12-31T06:40:11;100177.00;;;6.60
69545;BMP180;56766;52.260;20.746;2022-12-31T06:42:39;100176.00;;;6.60
69545;BMP180;56766;52.260;20.746;2022-12-31T06:45:08;100179.40;;;6.60
69545;BMP180;56766;52.260;20.746;2022-12-31T06:47:34;100180.60;;;6.60
69545;BMP180;56766;52.260;20.746;2022-12-31T06:50:01;100180.60;;;6.66
69545;BMP180;56766;52.260;20.746;2022-12-31T06:52:28;100187.00;;;6.70
69545;BMP180;56766;52.260;20.746;2022-12-31T06:54:55;100187.20;;;6.70
69545;BMP180;56766;52.260;20.746;2022-12-31T06:57:22;100187.20;;;6.70
69545;BMP180;56766;52.260;20.746;2022-12-31T06:59:49;100188.20;;;6.70
69545;BMP180;56766;52.260;20.746;2022-12-31T07:05:29;100195.80;;;6.72
69545;BMP180;56766;52.260;20.746;2022-12-31T07:11:32;100203.40;;;6.80
69545;BMP180;56766;52.260;20.746;2022-12-31T07:20:13;100217.40;;;6.96
69545;BMP180;56766;52.260;20.746;2022-12-31T07:22:40;100218.60;;;7.00
69545;BMP180;56766;52.260;20.746;2022-12-31T07:25:14;100224.20;;;7.00
69545;BMP180;56766;52.260;20.746;2022-12-31T07:31:05;100234.40;;;7.10
69545;BMP180;56766;52.260;20.746;2022-12-31T07:33:58;100236.40;;;7.20
69545;BMP180;56766;52.260;20.746;2022-12-31T07:39:34;100237.60;;;7.20
69545;BMP180;56766;52.260;20.746;2022-12-31T07:47:36;100232.60;;;7.40
69545;BMP180;56766;52.260;20.746;2022-12-31T07:50:03;100227.60;;;7.40
69545;BMP180;56766;52.260;20.746;2022-12-31T07:52:30;100226.60;;;7.44
69545;BMP180;56766;52.260;20.746;2022-12-31T07:54:57;100226.60;;;7.50
69545;BMP180;56766;52.260;20.746;2022-12-31T07:57:37;100225.40;;;7.60
69545;BMP180;56766;52.260;20.746;2022-12-31T08:00:13;100226.40;;;7.60
69545;BMP180;56766;52.260;20.746;2022-12-31T08:11:34;100243.80;;;7.90
69545;BMP180;56766;52.260;20.746;2022-12-31T08:14:10;100243.80;;;7.90
69545;BMP180;56766;52.260;20.746;2022-12-31T08:16:38;100238.20;;;7.90
69545;BMP180;56766;52.260;20.746;2022-12-31T08:19:05;100240.00;;;7.94
69545;BMP180;56766;52.260;20.746;2022-12-31T08:30:19;100244.40;;;8.10
69545;BMP180;56766;52.260;20.746;2022-12-31T08:36:00;100257.00;;;8.10
69545;BMP180;56766;52.260;20.746;2022-12-31T08:38:42;100266.00;;;8.12
69545;BMP180;56766;52.260;20.746;2022-12-31T08:49:15;100271.20;;;8.50
69545;BMP180;56766;52.260;20.746;2022-12-31T08:51:42;100274.80;;;8.60
69545;BMP180;56766;52.260;20.746;2022-12-31T08:54:12;100277.80;;;8.60
69545;BMP180;56766;52.260;20.746;2022-12-31T09:00:08;100262.00;;;8.70
69545;BMP180;56766;52.260;20.746;2022-12-31T09:05:45;100251.20;;;8.86
69545;BMP180;56766;52.260;20.746;2022-12-31T09:08:53;100253.80;;;8.92
69545;BMP180;56766;52.260;20.746;2022-12-31T09:11:39;100256.80;;;9.00
69545;BMP180;56766;52.260;20.746;2022-12-31T09:19:38;100236.60;;;9.20
69545;BMP180;56766;52.260;20.746;2022-12-31T09:22:04;100238.40;;;9.28
69545;BMP180;56766;52.260;20.746;2022-12-31T09:24:32;100232.00;;;9.30
69545;BMP180;56766;52.260;20.746;2022-12-31T09:27:23;100230.80;;;9.32
69545;BMP180;56766;52.260;20.746;2022-12-31T09:30:20;100229.80;;;9.40
69545;BMP180;56766;52.260;20.746;2022-12-31T09:32:58;100220.60;;;9.40
69545;BMP180;56766;52.260;20.746;2022-12-31T09:35:36;100220.80;;;9.40
69545;BMP180;56766;52.260;20.746;2022-12-31T09:38:21;100225.00;;;9.40
69545;BMP180;56766;52.260;20.746;2022-12-31T09:41:13;100223.20;;;9.40
69545;BMP180;56766;52.260;20.746;2022-12-31T09:50:32;100213.40;;;9.40
69545;BMP180;56766;52.260;20.746;2022-12-31T09:59:40;100205.00;;;9.70
69545;BMP180;56766;52.260;20.746;2022-12-31T10:15:14;100206.40;;;10.46
69545;BMP180;56766;52.260;20.746;2022-12-31T10:26:54;100184.00;;;11.30
69545;BMP180;56766;52.260;20.746;2022-12-31T10:35:35;100181.00;;;11.50
69545;BMP180;56766;52.260;20.746;2022-12-31T10:38:38;100189.00;;;11.48
69545;BMP180;56766;52.260;20.746;2022-12-31T10:44:58;100157.60;;;11.40
69545;BMP180;56766;52.260;20.746;2022-12-31T10:51:41;100143.80;;;11.40
69545;BMP180;56766;52.260;20.746;2022-12-31T11:00:18;100145.80;;;11.56
69545;BMP180;56766;52.260;20.746;2022-12-31T11:15:02;100124.40;;;11.60
69545;BMP180;56766;52.260;20.746;2022-12-31T11:26:54;100134.00;;;11.48
69545;BMP180;56766;52.260;20.746;2022-12-31T11:32:21;100121.40;;;11.40
69545;BMP180;56766;52.260;20.746;2022-12-31T11:38:01;100115.40;;;11.50
69545;BMP180;56766;52.260;20.746;2022-12-31T11:41:02;100111.60;;;11.50
69545;BMP180;56766;52.260;20.746;2022-12-31T11:50:02;100122.80;;;11.60
69545;BMP180;56766;52.260;20.746;2022-12-31T11:56:24;100113.60;;;11.60
69545;BMP180;56766;52.260;20.746;2022-12-31T11:58:55;100099.60;;;11.60
69545;BMP180;56766;52.260;20.746;2022-12-31T12:01:32;100105.40;;;11.70
69545;BMP180;56766;52.260;20.746;2022-12-31T12:04:02;100113.60;;;11.80
69545;BMP180;56766;52.260;20.746;2022-12-31T12:06:31;100106.80;;;11.80
69545;BMP180;56766;52.260;20.746;2022-12-31T12:09:06;100100.40;;;11.88
69545;BMP180;56766;52.260;20.746;2022-12-31T12:11:39;100101.20;;;11.98
69545;BMP180;56766;52.260;20.746;2022-12-31T12:14:32;100104.20;;;12.00
69545;BMP180;56766;52.260;20.746;2022-12-31T12:17:01;100100.40;;;11.92
69545;BMP180;56766;52.260;20.746;2022-12-31T12:19:35;100101.80;;;11.90
69545;BMP180;56766;52.260;20.746;2022-12-31T12:22:22;100098.80;;;11.80
69545;BMP180;56766;52.260;20.746;2022-12-31T12:25:15;100095.60;;;11.70
69545;BMP180;56766;52.260;20.746;2022-12-31T12:27:42;100099.80;;;11.60
69545;BMP180;56766;52.260;20.746;2022-12-31T12:30:29;100094.40;;;11.50
69545;BMP180;56766;52.260;20.746;2022-12-31T12:33:03;100088.80;;;11.50
69545;BMP180;56766;52.260;20.746;2022-12-31T12:35:34;100083.00;;;11.50
69545;BMP180;56766;52.260;20.746;2022-12-31T12:38:06;100088.40;;;11.50
69545;BMP180;56766;52.260;20.746;2022-12-31T12:40:39;100082.80;;;11.50
69545;BMP180;56766;52.260;20.746;2022-12-31T12:43:23;100074.80;;;11.50
69545;BMP180;56766;52.260;20.746;2022-12-31T12:46:03;100072.40;;;11.40
69545;BMP180;56766;52.260;20.746;2022-12-31T12:48:38;100076.20;;;11.40
69545;BMP180;56766;52.260;20.746;2022-12-31T12:51:43;100068.20;;;11.40
69545;BMP180;56766;52.260;20.746;2022-12-31T13:07:15;100067.20;;;11.46
69545;BMP180;56766;52.260;20.746;2022-12-31T13:12:34;100065.00;;;11.48
69545;BMP180;56766;52.260;20.746;2022-12-31T13:15:15;100066.20;;;11.50
69545;BMP180;56766;52.260;20.746;2022-12-31T13:18:09;100068.80;;;11.50
69545;BMP180;56766;52.260;20.746;2022-12-31T13:20:54;100065.00;;;11.50
69545;BMP180;56766;52.260;20.746;2022-12-31T13:23:51;100069.40;;;11.50
69545;BMP180;56766;52.260;20.746;2022-12-31T13:27:00;100069.20;;;11.50
69545;BMP180;56766;52.260;20.746;2022-12-31T13:29:33;100066.40;;;11.50
69545;BMP180;56766;52.260;20.746;2022-12-31T13:32:06;100061.20;;;11.52
69545;BMP180;56766;52.260;20.746;2022-12-31T13:34:39;100055.00;;;11.50
69545;BMP180;56766;52.260;20.746;2022-12-31T13:37:32;100062.00;;;11.58
69545;BMP180;56766;52.260;20.746;2022-12-31T13:40:20;100059.00;;;11.60
69545;BMP180;56766;52.260;20.746;2022-12-31T13:43:11;100070.40;;;11.60
69545;BMP180;56766;52.260;20.746;2022-12-31T13:45:44;100077.00;;;11.60
69545;BMP180;56766;52.260;20.746;2022-12-31T13:48:23;100071.80;;;11.60
69545;BMP180;56766;52.260;20.746;2022-12-31T13:51:45;100079.20;;;11.50
69545;BMP180;56766;52.260;20.746;2022-12-31T13:54:43;100076.20;;;11.50
69545;BMP180;56766;52.260;20.746;2022-12-31T14:00:46;100073.00;;;11.40
69545;BMP180;56766;52.260;20.746;2022-12-31T14:07:16;100071.00;;;11.32
69545;BMP180;56766;52.260;20.746;2022-12-31T14:09:43;100084.20;;;11.30
69545;BMP180;56766;52.260;20.746;2022-12-31T14:15:48;100085.60;;;11.30
69545;BMP180;56766;52.260;20.746;2022-12-31T14:18:31;100085.00;;;11.30
69545;BMP180;56766;52.260;20.746;2022-12-31T14:21:13;100089.20;;;11.30
69545;BMP180;56766;52.260;20.746;2022-12-31T14:26:50;100090.80;;;11.20
69545;BMP180;56766;52.260;20.746;2022-12-31T14:50:10;100100.40;;;11.20
69545;BMP180;56766;52.260;20.746;2022-12-31T14:52:52;100099.60;;;11.20
69545;BMP180;56766;52.260;20.746;2022-12-31T14:55:30;100100.80;;;11.20
69545;BMP180;56766;52.260;20.746;2022-12-31T14:58:00;100099.60;;;11.20
69545;BMP180;56766;52.260;20.746;2022-12-31T15:00:38;100100.40;;;11.20
69545;BMP180;56766;52.260;20.746;2022-12-31T15:03:27;100102.40;;;11.20
69545;BMP180;56766;52.260;20.746;2022-12-31T15:12:08;100097.00;;;11.20
69545;BMP180;56766;52.260;20.746;2022-12-31T15:21:12;100104.60;;;11.20
69545;BMP180;56766;52.260;20.746;2022-12-31T15:23:48;100100.00;;;11.20
69545;BMP180;56766;52.260;20.746;2022-12-31T15:26:24;100100.00;;;11.20
69545;BMP180;56766;52.260;20.746;2022-12-31T15:29:07;100096.00;;;11.20
69545;BMP180;56766;52.260;20.746;2022-12-31T15:31:44;100089.00;;;11.26
69545;BMP180;56766;52.260;20.746;2022-12-31T15:34:28;100089.60;;;11.30
69545;BMP180;56766;52.260;20.746;2022-12-31T15:37:00;100085.00;;;11.30
69545;BMP180;56766;52.260;20.746;2022-12-31T15:41:59;100089.60;;;11.30
69545;BMP180;56766;52.260;20.746;2022-12-31T15:44:50;100085.00;;;11.30
69545;BMP180;56766;52.260;20.746;2022-12-31T15:47:38;100079.80;;;11.38
69545;BMP180;56766;52.260;20.746;2022-12-31T15:50:17;100074.80;;;11.40
69545;BMP180;56766;52.260;20.746;2022-12-31T15:52:59;100079.80;;;11.40
69545;BMP180;56766;52.260;20.746;2022-12-31T15:55:48;100080.20;;;11.48
69545;BMP180;56766;52.260;20.746;2022-12-31T15:58:25;100094.00;;;11.50
69545;BMP180;56766;52.260;20.746;2022-12-31T16:01:11;100092.60;;;11.50
69545;BMP180;56766;52.260;20.746;2022-12-31T16:03:58;100092.40;;;11.50
69545;BMP180;56766;52.260;20.746;2022-12-31T16:06:31;100094.60;;;11.52
69545;BMP180;56766;52.260;20.746;2022-12-31T16:08:59;100095.60;;;11.56
69545;BMP180;56766;52.260;20.746;2022-12-31T16:11:26;100094.60;;;11.58
69545;BMP180;56766;52.260;20.746;2022-12-31T16:13:57;100093.00;;;11.60
69545;BMP180;56766;52.260;20.746;2022-12-31T16:16:30;100102.80;;;11.60
69545;BMP180;56766;52.260;20.746;2022-12-31T16:18:58;100107.80;;;11.60
69545;BMP180;56766;52.260;20.746;2022-12-31T16:21:35;100113.60;;;11.60
69545;BMP180;56766;52.260;20.746;2022-12-31T16:24:30;100113.40;;;11.62
69545;BMP180;56766;52.260;20.746;2022-12-31T16:27:07;100121.40;;;11.70
69545;BMP180;56766;52.260;20.746;2022-12-31T16:29:42;100114.20;;;11.60
69545;BMP180;56766;52.260;20.746;2022-12-31T16:32:17;100112.20;;;11.60
69545;BMP180;56766;52.260;20.746;2022-12-31T16:34:44;100112.00;;;11.50
69545;BMP180;56766;52.260;20.746;2022-12-31T16:37:18;100113.80;;;11.50
69545;BMP180;56766;52.260;20.746;2022-12-31T16:42:27;100111.60;;;11.40
69545;BMP180;56766;52.260;20.746;2022-12-31T16:44:56;100113.60;;;11.30
69545;BMP180;56766;52.260;20.746;2022-12-31T16:47:35;100100.80;;;11.20
69545;BMP180;56766;52.260;20.746;2022-12-31T16:50:09;100103.80;;;11.20
69545;BMP180;56766;52.260;20.746;2022-12-31T16:52:42;100106.80;;;11.20
69545;BMP180;56766;52.260;20.746;2022-12-31T16:55:21;100110.00;;;11.10
69545;BMP180;56766;52.260;20.746;2022-12-31T16:57:55;100114.00;;;11.10
69545;BMP180;56766;52.260;20.746;2022-12-31T17:00:25;100112.60;;;11.00
69545;BMP180;56766;52.260;20.746;2022-12-31T17:03:17;100116.40;;;11.00
69545;BMP180;56766;52.260;20.746;2022-12-31T17:06:16;100121.80;;;11.00
69545;BMP180;56766;52.260;20.746;2022-12-31T17:11:33;100113.00;;;11.00
69545;BMP180;56766;52.260;20.746;2022-12-31T17:16:53;100123.60;;;10.96
69545;BMP180;56766;52.260;20.746;2022-12-31T17:19:42;100122.00;;;10.92
69545;BMP180;56766;52.260;20.746;2022-12-31T17:22:38;100118.60;;;11.00
69545;BMP180;56766;52.260;20.746;2022-12-31T17:25:13;100118.20;;;11.00
69545;BMP180;56766;52.260;20.746;2022-12-31T17:28:06;100122.20;;;11.00
69545;BMP180;56766;52.260;20.746;2022-12-31T17:30:36;100130.60;;;11.00
69545;BMP180;56766;52.260;20.746;2022-12-31T17:35:55;100140.20;;;10.94
69545;BMP180;56766;52.260;20.746;2022-12-31T17:38:31;100138.60;;;11.00
69545;BMP180;56766;52.260;20.746;2022-12-31T17:43:40;100140.80;;;11.02
69545;BMP180;56766;52.260;20.746;2022-12-31T17:46:15;100149.60;;;11.08
69545;BMP180;56766;52.260;20.746;2022-12-31T17:48:49;100151.20;;;11.08
69545;BMP180;56766;52.260;20.746;2022-12-31T17:51:16;100147.60;;;11.10
69545;BMP180;56766;52.260;20.746;2022-12-31T17:53:44;100144.40;;;11.10
69545;BMP180;56766;52.260;20.746;2022-12-31T17:56:14;100147.80;;;11.10
69545;BMP180;56766;52.260;20.746;2022-12-31T17:58:49;100145.20;;;11.12
69545;BMP180;56766;52.260;20.746;2022-12-31T18:01:22;100141.00;;;11.12
69545;BMP180;56766;52.260;20.746;2022-12-31T18:03:49;100150.40;;;11.20
69545;BMP180;56766;52.260;20.746;2022-12-31T18:06:18;100143.20;;;11.20
69545;BMP180;56766;52.260;20.746;2022-12-31T18:08:46;100151.20;;;11.30
69545;BMP180;56766;52.260;20.746;2022-12-31T18:11:18;100154.40;;;11.32
69545;BMP180;56766;52.260;20.746;2022-12-31T18:13:47;100160.60;;;11.40
69545;BMP180;56766;52.260;20.746;2022-12-31T18:16:15;100170.60;;;11.50
69545;BMP180;56766;52.260;20.746;2022-12-31T18:18:42;100171.80;;;11.60
69545;BMP180;56766;52.260;20.746;2022-12-31T18:21:31;100166.60;;;11.70
69545;BMP180;56766;52.260;20.746;2022-12-31T18:24:02;100165.80;;;11.76
69545;BMP180;56766;52.260;20.746;2022-12-31T18:26:30;100161.00;;;11.80
69545;BMP180;56766;52.260;20.746;2022-12-31T18:29:14;100159.80;;;11.82
69545;BMP180;56766;52.260;20.746;2022-12-31T18:31:45;100150.40;;;11.90
69545;BMP180;56766;52.260;20.746;2022-12-31T18:34:15;100145.60;;;11.90
69545;BMP180;56766;52.260;20.746;2022-12-31T18:36:42;100151.60;;;12.00
69545;BMP180;56766;52.260;20.746;2022-12-31T18:39:09;100155.60;;;12.00
69545;BMP180;56766;52.260;20.746;2022-12-31T18:41:41;100160.00;;;12.00
69545;BMP180;56766;52.260;20.746;2022-12-31T18:44:11;100162.60;;;12.10
69545;BMP180;56766;52.260;20.746;2022-12-31T18:46:38;100158.20;;;12.10
69545;BMP180;56766;52.260;20.746;2022-12-31T18:49:05;100156.80;;;12.20
69545;BMP180;56766;52.260;20.746;2022-12-31T18:51:33;100153.80;;;12.20